createdAt,value
2022-09-14T00:02:57.739Z,40.08
2022-09-14T00:08:02.404Z,39.70
2022-09-14T00:13:05.250Z,40.25
2022-09-14T00:18:10.637Z,39.45
2022-09-14T00:23:14.826Z,41.13
2022-09-14T00:28:17.895Z,39.95
2022-09-14T00:33:20.723Z,39.05
2022-09-14T00:38:27.641Z,39.85
2022-09-14T00:43:30.579Z,39.55
2022-09-14T00:48:33.475Z,39.85
2022-09-14T00:53:37.822Z,39.92
2022-09-14T00:58:40.998Z,40.65
2022-09-14T01:03:43.901Z,39.95
2022-09-14T01:09:07.067Z,39.80
2022-09-14T01:14:15.934Z,39.67
2022-09-14T01:19:27.057Z,40.53
2022-09-14T01:24:43.841Z,40.25
2022-09-14T01:29:51.269Z,40.13
2022-09-14T01:35:02.316Z,39.88
2022-09-14T01:40:11.218Z,40.40
2022-09-14T01:45:19.104Z,40.45
2022-09-14T01:50:33.916Z,41.53
2022-09-14T01:55:43.621Z,40.47
2022-09-14T02:00:49.717Z,40.13
2022-09-14T02:05:59.701Z,41.53
2022-09-14T02:11:03.193Z,41.40
2022-09-14T02:16:07.529Z,40.95
2022-09-14T02:21:15.978Z,40.47
2022-09-14T02:26:20.559Z,40.58
2022-09-14T02:31:33.969Z,40.20
2022-09-14T02:36:48.519Z,40.45
2022-09-14T02:41:56.691Z,39.63
2022-09-14T02:47:05.835Z,39.45
2022-09-14T02:52:31.893Z,40.78
2022-09-14T02:57:54.854Z,38.58
2022-09-14T03:02:59.507Z,38.72
2022-09-14T03:08:03.044Z,38.67
2022-09-14T03:13:06.033Z,38.50
2022-09-14T03:18:14.327Z,38.47
2022-09-14T03:23:17.498Z,38.88
2022-09-14T03:28:20.285Z,39.10
2022-09-14T03:33:24.446Z,38.47
2022-09-14T03:38:30.088Z,38.80
2022-09-14T03:43:33.270Z,38.53
2022-09-14T03:48:37.729Z,39.25
2022-09-14T03:53:41.426Z,38.63
2022-09-14T03:58:45.228Z,38.63
2022-09-14T04:03:49.753Z,38.55
2022-09-14T04:08:52.975Z,39.20
2022-09-14T04:13:55.770Z,42.13
2022-09-14T04:18:59.909Z,38.90
2022-09-14T04:24:14.670Z,38.80
2022-09-14T04:29:17.988Z,38.80
2022-09-14T04:34:22.243Z,39.47
2022-09-14T04:39:26.299Z,38.97
2022-09-14T04:44:29.480Z,39.20
2022-09-14T04:49:33.643Z,39.60
2022-09-14T04:54:36.476Z,39.72
2022-09-14T04:59:39.273Z,40.22
2022-09-14T05:04:43.483Z,40.10
2022-09-14T05:09:46.304Z,39.72
2022-09-14T05:14:50.175Z,39.40
2022-09-14T05:19:54.373Z,39.70
2022-09-14T05:24:57.207Z,40.00
2022-09-14T05:30:00.010Z,41.58
2022-09-14T05:35:04.357Z,41.38
2022-09-14T05:40:08.754Z,41.13
2022-09-14T05:45:12.364Z,45.25
2022-09-14T05:50:16.899Z,40.67
2022-09-14T05:55:19.810Z,40.53
2022-09-14T06:00:22.782Z,40.13
2022-09-14T06:05:28.178Z,39.58
2022-09-14T06:10:31.081Z,39.72
2022-09-14T06:15:34.451Z,39.83
2022-09-14T06:20:38.591Z,39.03
2022-09-14T06:25:41.427Z,39.65
2022-09-14T06:30:45.145Z,39.28
2022-09-14T06:35:57.080Z,39.03
2022-09-14T06:41:02.734Z,39.40
2022-09-14T06:46:08.424Z,39.17
2022-09-14T06:51:18.352Z,39.10
2022-09-14T06:56:21.538Z,39.60
2022-09-14T07:01:25.864Z,39.15
2022-09-14T07:06:32.157Z,39.47
2022-09-14T07:11:35.583Z,39.22
2022-09-14T07:16:40.295Z,39.55
2022-09-14T07:21:44.621Z,39.35
2022-09-14T07:26:47.491Z,39.03
2022-09-14T07:31:52.489Z,38.97
2022-09-14T07:36:56.812Z,39.33
2022-09-14T07:41:59.751Z,39.35
2022-09-14T07:47:02.608Z,39.75
2022-09-14T07:52:06.957Z,39.45
2022-09-14T07:57:09.795Z,39.38
2022-09-14T08:02:12.783Z,38.75
2022-09-14T08:07:16.951Z,39.25
2022-09-14T08:12:20.026Z,39.13
2022-09-14T08:17:23.998Z,39.75
2022-09-14T08:22:28.494Z,39.88
2022-09-14T08:27:31.355Z,39.65
2022-09-14T08:32:34.198Z,39.55
2022-09-14T08:37:38.322Z,39.85
2022-09-14T08:42:41.243Z,40.10
2022-09-14T08:47:44.662Z,39.15
2022-09-14T08:52:52.851Z,39.55
2022-09-14T08:58:01.591Z,39.88
2022-09-14T09:03:36.982Z,39.17
2022-09-14T09:08:50.852Z,39.25
2022-09-14T09:13:55.220Z,39.10
2022-09-14T09:19:02.453Z,39.40
2022-09-14T09:24:18.566Z,39.72
2022-09-14T09:29:21.606Z,39.85
2022-09-14T09:34:43.234Z,39.95
2022-09-14T09:40:03.755Z,39.65
2022-09-14T09:45:07.686Z,39.55
2022-09-14T09:50:20.257Z,39.40
2022-09-14T09:55:29.287Z,39.85
2022-09-14T10:00:32.215Z,39.53
2022-09-14T10:05:35.081Z,39.45
2022-09-14T10:10:44.599Z,39.72
2022-09-14T10:15:48.911Z,39.67
2022-09-14T10:21:09.387Z,39.65
2022-09-14T10:26:27.911Z,39.38
2022-09-14T10:31:34.085Z,39.75
2022-09-14T10:36:43.726Z,39.67
2022-09-14T10:42:00.362Z,39.65
2022-09-14T10:47:21.532Z,39.33
2022-09-14T10:52:35.194Z,39.78
2022-09-14T10:57:49.290Z,39.72
2022-09-14T11:03:05.152Z,40.40
2022-09-14T11:08:14.871Z,39.83
2022-09-14T11:13:32.894Z,39.58
2022-09-14T11:18:46.029Z,40.28
2022-09-14T11:23:52.265Z,40.15
2022-09-14T11:29:00.359Z,40.17
2022-09-14T11:34:14.285Z,40.20
2022-09-14T11:39:21.304Z,40.45
2022-09-14T11:44:31.139Z,40.05
2022-09-14T11:49:43.681Z,40.25
2022-09-14T11:54:47.087Z,39.78
2022-09-14T11:59:55.954Z,39.55
2022-09-14T12:05:29.919Z,40.42
2022-09-14T12:10:52.975Z,39.03
2022-09-14T12:16:04.898Z,39.00
2022-09-14T12:21:17.886Z,39.15
2022-09-14T12:26:31.362Z,38.92
2022-09-14T12:31:57.751Z,38.40
2022-09-14T12:37:21.544Z,38.45
2022-09-14T12:42:32.050Z,37.95
2022-09-14T12:47:51.882Z,38.10
2022-09-14T12:53:16.782Z,38.28
2022-09-14T12:58:39.429Z,37.78
2022-09-14T13:03:51.362Z,38.25
2022-09-14T13:08:58.909Z,37.92
2022-09-14T13:14:03.738Z,37.75
2022-09-14T13:19:19.663Z,38.03
2022-09-14T13:24:32.495Z,38.13
2022-09-14T13:29:35.717Z,38.35
2022-09-14T13:34:40.071Z,37.58
2022-09-14T13:39:51.801Z,37.88
2022-09-14T13:44:55.811Z,37.58
2022-09-14T13:50:00.305Z,37.90
2022-09-14T13:55:25.711Z,38.33
2022-09-14T14:00:28.791Z,37.70
2022-09-14T14:05:33.498Z,37.63
2022-09-14T14:10:46.032Z,37.78
2022-09-14T14:15:52.118Z,38.30
2022-09-14T14:21:05.584Z,37.53
2022-09-14T14:26:14.414Z,37.72
2022-09-14T14:31:20.568Z,38.15
2022-09-14T14:36:23.454Z,37.83
2022-09-14T14:41:29.447Z,38.42
2022-09-14T14:46:37.784Z,38.17
2022-09-14T14:51:45.086Z,37.90
2022-09-14T14:56:54.081Z,37.95
2022-09-14T15:01:59.168Z,38.08
2022-09-14T15:07:05.142Z,38.40
2022-09-14T15:12:10.911Z,38.13
2022-09-14T15:17:13.724Z,37.95
2022-09-14T15:22:16.751Z,38.53
2022-09-14T15:27:20.975Z,38.25
2022-09-14T15:32:30.848Z,38.45
2022-09-14T15:37:33.685Z,38.97
2022-09-14T15:42:37.826Z,38.55
2022-09-14T15:47:43.411Z,38.20
2022-09-14T15:52:46.256Z,39.05
2022-09-14T15:57:50.464Z,38.20
2022-09-14T16:02:53.894Z,38.22
2022-09-14T16:07:57.202Z,38.35
2022-09-14T16:13:03.480Z,38.15
2022-09-14T16:18:06.711Z,37.78
2022-09-14T16:23:10.690Z,38.28
2022-09-14T16:28:15.026Z,38.08
2022-09-14T16:33:19.146Z,38.05
2022-09-14T16:38:22.041Z,38.60
2022-09-14T16:43:26.255Z,37.67
2022-09-14T16:48:29.281Z,37.95
2022-09-14T16:53:38.269Z,38.40
2022-09-14T16:58:43.338Z,38.05
2022-09-14T17:03:47.952Z,38.10
2022-09-14T17:08:53.221Z,37.80
2022-09-14T17:13:58.227Z,37.58
2022-09-14T17:19:03.824Z,37.97
2022-09-14T17:24:07.878Z,38.05
2022-09-14T17:29:12.631Z,37.75
2022-09-14T17:34:17.720Z,37.83
2022-09-14T17:39:20.603Z,37.75
2022-09-14T17:44:25.851Z,37.92
2022-09-14T17:49:28.747Z,38.15
2022-09-14T17:54:31.751Z,38.00
2022-09-14T17:59:36.324Z,37.80
2022-09-14T18:04:39.690Z,37.85
2022-09-14T18:09:42.995Z,37.55
2022-09-14T18:14:47.408Z,37.35
2022-09-14T18:19:54.293Z,37.65
2022-09-14T18:24:57.315Z,37.80
2022-09-14T18:30:02.659Z,37.72
2022-09-14T18:35:06.422Z,37.65
2022-09-14T18:40:20.010Z,37.65
2022-09-14T18:45:24.701Z,38.15
2022-09-14T18:50:27.793Z,38.03
2022-09-14T18:55:33.333Z,37.90
2022-09-14T19:00:38.329Z,37.70
2022-09-14T19:05:42.938Z,37.75
2022-09-14T19:10:46.389Z,38.00
2022-09-14T19:15:50.976Z,37.55
2022-09-14T19:21:06.316Z,37.65
2022-09-14T19:26:29.854Z,37.80
2022-09-14T19:31:34.248Z,38.10
2022-09-14T19:36:37.380Z,37.95
2022-09-14T19:41:41.118Z,41.20
2022-09-14T19:46:59.762Z,38.42
2022-09-14T19:52:03.124Z,37.88
2022-09-14T19:57:06.881Z,38.13
2022-09-14T20:02:12.006Z,38.17
2022-09-14T20:07:14.926Z,38.17
2022-09-14T20:12:17.786Z,38.22
2022-09-14T20:17:21.975Z,38.15
2022-09-14T20:22:26.073Z,38.55
2022-09-14T20:27:29.437Z,38.25
2022-09-14T20:32:33.716Z,38.38
2022-09-14T20:37:36.743Z,38.65
2022-09-14T20:42:39.615Z,39.22
2022-09-14T20:47:45.111Z,38.33
2022-09-14T20:52:47.993Z,38.45
2022-09-14T20:57:50.785Z,38.25
2022-09-14T21:02:55.381Z,38.85
2022-09-14T21:07:58.353Z,38.08
2022-09-14T21:13:01.171Z,38.05
2022-09-14T21:18:05.421Z,38.35
2022-09-14T21:23:08.386Z,37.90
2022-09-14T21:28:11.216Z,38.35
2022-09-14T21:33:16.424Z,38.58
2022-09-14T21:38:19.237Z,38.05
2022-09-14T21:43:22.203Z,38.67
2022-09-14T21:48:26.891Z,38.35
2022-09-14T21:53:30.156Z,38.83
2022-09-14T21:58:33.397Z,37.88
2022-09-14T22:03:37.753Z,37.97
2022-09-14T22:08:41.787Z,37.75
2022-09-14T22:13:44.819Z,37.83
2022-09-14T22:18:58.416Z,37.88
2022-09-14T22:24:05.259Z,39.28
2022-09-14T22:29:09.727Z,37.67
2022-09-14T22:34:14.852Z,37.53
2022-09-14T22:39:17.666Z,37.42
2022-09-14T22:44:20.472Z,37.83
2022-09-14T22:49:24.619Z,37.20
2022-09-14T22:54:27.442Z,37.22
2022-09-14T22:59:30.361Z,37.72
2022-09-14T23:04:34.697Z,36.92
2022-09-14T23:09:39.238Z,37.53
2022-09-14T23:14:42.088Z,36.92
2022-09-14T23:19:46.214Z,37.45
2022-09-14T23:24:49.050Z,36.90
2022-09-14T23:29:51.853Z,37.33
2022-09-14T23:34:56.004Z,37.42
2022-09-14T23:39:58.858Z,37.33
2022-09-14T23:45:01.688Z,37.35
2022-09-14T23:50:06.914Z,37.55
2022-09-14T23:55:10.751Z,37.42
